createdAt,value
2018-09-12T00:00:51.670Z,16.10
2018-09-12T00:03:21.858Z,16.20
2018-09-12T00:05:50.048Z,16.40
2018-09-12T00:08:18.235Z,16.50
2018-09-12T00:10:46.496Z,16.50
2018-09-12T00:13:14.695Z,16.30
2018-09-12T00:15:42.875Z,16.20
2018-09-12T00:18:11.142Z,16.20
2018-09-12T00:20:40.281Z,16.40
2018-09-12T00:23:08.418Z,16.60
2018-09-12T00:25:36.569Z,16.60
2018-09-12T00:28:04.925Z,16.40
2018-09-12T00:30:33.171Z,16.30
2018-09-12T00:33:01.296Z,16.20
2018-09-12T00:35:29.403Z,16.20
2018-09-12T00:37:57.509Z,16.10
2018-09-12T00:40:25.633Z,16.00
2018-09-12T00:42:53.812Z,16.00
2018-09-12T00:45:21.971Z,16.00
2018-09-12T00:47:50.157Z,16.00
2018-09-12T00:50:18.385Z,15.90
2018-09-12T00:52:46.570Z,15.80
2018-09-12T00:55:14.979Z,15.70
2018-09-12T00:57:43.106Z,15.70
2018-09-12T01:00:11.321Z,15.60
2018-09-12T01:02:39.521Z,15.50
2018-09-12T01:05:07.739Z,15.40
2018-09-12T01:07:35.840Z,15.40
2018-09-12T01:10:04.094Z,15.30
2018-09-12T01:12:32.250Z,15.30
2018-09-12T01:15:00.433Z,15.30
2018-09-12T01:17:28.593Z,15.60
2018-09-12T01:19:57.803Z,15.60
2018-09-12T01:22:26.062Z,15.60
2018-09-12T01:24:54.227Z,15.50
2018-09-12T01:27:22.453Z,15.50
2018-09-12T01:29:50.600Z,15.50
2018-09-12T01:32:18.813Z,15.60
2018-09-12T01:34:47.018Z,15.90
2018-09-12T01:37:15.163Z,16.10
2018-09-12T01:39:43.367Z,16.20
2018-09-12T01:42:11.646Z,16.30
2018-09-12T01:44:39.791Z,16.40
2018-09-12T01:47:07.947Z,16.50
2018-09-12T01:49:37.154Z,16.50
2018-09-12T01:52:05.283Z,16.50
2018-09-12T01:54:33.468Z,16.60
2018-09-12T01:57:01.624Z,16.60
2018-09-12T01:59:29.832Z,16.60
2018-09-12T02:01:57.982Z,16.50
2018-09-12T02:04:26.088Z,16.50
2018-09-12T02:06:54.236Z,16.60
2018-09-12T02:09:22.356Z,16.60
2018-09-12T02:11:50.523Z,16.70
2018-09-12T02:14:18.745Z,16.80
2018-09-12T02:16:46.941Z,16.80
2018-09-12T02:19:15.128Z,16.80
2018-09-12T02:21:43.286Z,16.80
2018-09-12T02:24:11.392Z,16.90
2018-09-12T02:26:39.537Z,16.90
2018-09-12T02:29:07.707Z,16.90
2018-09-12T02:31:35.898Z,16.90
2018-09-12T02:34:04.053Z,17.00
2018-09-12T02:36:32.245Z,17.10
2018-09-12T02:39:00.358Z,17.20
2018-09-12T02:41:28.659Z,17.20
2018-09-12T02:43:56.836Z,17.30
2018-09-12T02:46:25.022Z,17.40
2018-09-12T02:48:53.248Z,17.50
2018-09-12T02:51:21.492Z,17.50
2018-09-12T02:53:49.683Z,17.60
2018-09-12T02:56:18.327Z,17.60
2018-09-12T02:58:46.668Z,17.70
2018-09-12T03:01:14.835Z,17.70
2018-09-12T03:03:43.059Z,17.70
2018-09-12T03:06:11.198Z,17.70
2018-09-12T03:08:39.406Z,17.60
2018-09-12T03:11:07.530Z,17.60
2018-09-12T03:13:35.750Z,17.70
2018-09-12T03:16:03.974Z,17.60
2018-09-12T03:18:32.180Z,17.70
2018-09-12T03:21:00.571Z,17.70
2018-09-12T03:23:28.651Z,17.70
2018-09-12T03:25:56.747Z,17.70
2018-09-12T03:28:24.889Z,17.70
2018-09-12T03:30:53.139Z,17.60
2018-09-12T03:33:21.469Z,17.70
2018-09-12T03:35:49.895Z,17.70
2018-09-12T03:38:18.370Z,17.70
2018-09-12T03:40:46.770Z,17.70
2018-09-12T03:43:15.006Z,17.70
2018-09-12T03:45:43.292Z,17.60
2018-09-12T03:48:11.663Z,17.60
2018-09-12T03:50:39.811Z,17.60
2018-09-12T03:53:08.177Z,17.60
2018-09-12T03:55:36.302Z,17.60
2018-09-12T03:58:04.825Z,17.60
2018-09-12T04:00:32.997Z,17.60
2018-09-12T04:03:01.169Z,17.60
2018-09-12T04:05:29.428Z,17.60
2018-09-12T04:07:57.768Z,17.70
2018-09-12T04:10:25.937Z,17.70
2018-09-12T04:12:54.169Z,17.70
2018-09-12T04:15:22.313Z,17.70
2018-09-12T04:17:50.606Z,17.70
2018-09-12T04:20:18.797Z,17.70
2018-09-12T04:22:46.931Z,17.70
2018-09-12T04:25:15.112Z,17.70
2018-09-12T04:27:43.256Z,17.70
2018-09-12T04:30:11.539Z,17.60
2018-09-12T04:32:39.785Z,17.60
2018-09-12T04:35:07.922Z,17.60
2018-09-12T04:37:36.130Z,17.60
2018-09-12T04:40:04.402Z,17.50
2018-09-12T04:42:32.657Z,17.60
2018-09-12T04:45:00.822Z,17.60
2018-09-12T04:47:28.991Z,17.60
2018-09-12T04:49:57.152Z,17.60
2018-09-12T04:52:25.418Z,17.70
2018-09-12T04:54:53.584Z,17.70
2018-09-12T04:57:21.729Z,17.70
2018-09-12T04:59:49.896Z,17.70
2018-09-12T05:02:17.953Z,17.70
2018-09-12T05:04:46.154Z,17.80
2018-09-12T05:07:14.324Z,17.80
2018-09-12T05:09:42.504Z,17.70
2018-09-12T05:12:10.709Z,17.70
2018-09-12T05:14:38.865Z,17.70
2018-09-12T05:17:07.110Z,17.60
2018-09-12T05:19:35.334Z,17.60
2018-09-12T05:22:03.488Z,17.60
2018-09-12T05:24:31.759Z,17.60
2018-09-12T05:26:59.943Z,17.60
2018-09-12T05:29:28.127Z,17.60
2018-09-12T05:31:56.368Z,17.60
2018-09-12T05:34:24.529Z,17.60
2018-09-12T05:36:52.683Z,17.70
2018-09-12T05:39:20.958Z,17.70
2018-09-12T05:41:49.219Z,17.70
2018-09-12T05:44:17.375Z,17.80
2018-09-12T05:46:45.545Z,17.80
2018-09-12T05:49:13.743Z,17.70
2018-09-12T05:51:41.921Z,17.80
2018-09-12T05:54:10.136Z,17.80
2018-09-12T05:56:38.318Z,17.80
2018-09-12T05:59:06.513Z,17.90
2018-09-12T06:01:34.668Z,17.90
2018-09-12T06:04:02.878Z,17.90
2018-09-12T06:06:31.056Z,18.00
2018-09-12T06:08:59.282Z,18.00
2018-09-12T06:11:27.478Z,18.00
2018-09-12T06:13:55.626Z,18.00
2018-09-12T06:16:23.828Z,18.00
2018-09-12T06:18:52.396Z,18.10
2018-09-12T06:21:20.693Z,18.10
2018-09-12T06:23:49.490Z,18.10
2018-09-12T06:26:18.103Z,18.10
2018-09-12T06:28:46.582Z,18.10
2018-09-12T06:31:16.441Z,18.20
2018-09-12T06:33:45.097Z,18.30
2018-09-12T06:36:13.633Z,18.30
2018-09-12T06:38:42.253Z,18.40
2018-09-12T06:41:10.739Z,18.30
2018-09-12T06:43:39.264Z,18.40
2018-09-12T06:46:07.658Z,18.40
2018-09-12T06:48:36.428Z,18.40
2018-09-12T06:51:05.079Z,18.40
2018-09-12T06:53:33.978Z,18.40
2018-09-12T06:56:02.579Z,18.30
2018-09-12T06:58:31.123Z,18.30
2018-09-12T07:00:59.969Z,18.30
2018-09-12T07:03:28.431Z,18.30
2018-09-12T07:05:57.018Z,18.10
2018-09-12T07:08:25.822Z,18.00
2018-09-12T07:10:54.404Z,17.80
2018-09-12T07:13:23.084Z,17.60
2018-09-12T07:15:51.616Z,17.40
2018-09-12T07:18:20.073Z,17.20
2018-09-12T07:20:48.589Z,17.00
2018-09-12T07:23:17.142Z,16.90
2018-09-12T07:25:45.720Z,16.90
2018-09-12T07:28:14.707Z,16.80
2018-09-12T07:30:43.736Z,16.80
2018-09-12T07:33:12.846Z,16.90
2018-09-12T07:35:41.900Z,16.90
2018-09-12T07:38:10.849Z,16.90
2018-09-12T07:40:40.105Z,16.80
2018-09-12T07:43:10.976Z,16.80
2018-09-12T07:45:40.005Z,16.80
2018-09-12T07:48:08.826Z,16.80
2018-09-12T07:50:37.821Z,16.70
2018-09-12T07:53:06.680Z,16.70
2018-09-12T07:55:35.611Z,16.70
2018-09-12T07:58:05.761Z,16.70
2018-09-12T08:00:36.469Z,16.70
2018-09-12T08:03:09.410Z,16.70
2018-09-12T08:05:40.018Z,16.70
2018-09-12T08:08:10.502Z,16.60
2018-09-12T08:10:42.719Z,16.60
2018-09-12T08:13:14.065Z,16.60
2018-09-12T08:15:43.656Z,16.70
2018-09-12T08:18:12.946Z,16.70
2018-09-12T08:20:43.541Z,16.70
2018-09-12T08:23:13.036Z,16.80
2018-09-12T08:25:41.566Z,16.80
2018-09-12T08:28:12.760Z,16.80
2018-09-12T08:30:48.016Z,16.80
2018-09-12T08:33:24.662Z,16.90
2018-09-12T08:35:57.373Z,16.90
2018-09-12T08:38:29.726Z,17.10
2018-09-12T08:41:01.122Z,17.00
2018-09-12T08:43:32.321Z,17.00
2018-09-12T08:46:04.769Z,16.90
2018-09-12T08:48:38.101Z,16.80
2018-09-12T08:51:09.837Z,16.70
2018-09-12T08:53:41.028Z,16.80
2018-09-12T08:56:12.478Z,16.80
2018-09-12T08:58:43.288Z,16.70
2018-09-12T09:01:13.685Z,16.50
2018-09-12T09:06:12.536Z,16.00
2018-09-12T09:08:52.230Z,16.00
2018-09-12T09:11:21.569Z,15.90
2018-09-12T09:13:51.645Z,15.90
2018-09-12T09:16:46.556Z,15.90
2018-09-12T09:19:18.749Z,15.80
2018-09-12T09:21:47.434Z,15.80
2018-09-12T09:24:15.815Z,15.80
2018-09-12T09:26:44.084Z,15.90
2018-09-12T09:29:14.518Z,15.90
2018-09-12T09:31:44.188Z,15.80
2018-09-12T09:34:13.322Z,15.80
2018-09-12T09:36:41.843Z,16.00
2018-09-12T09:39:11.611Z,15.80
2018-09-12T09:41:40.641Z,15.80
2018-09-12T09:44:09.302Z,15.70
2018-09-12T09:46:37.879Z,15.70
2018-09-12T09:49:06.693Z,15.90
2018-09-12T09:51:35.747Z,16.40
2018-09-12T09:54:04.525Z,16.60
2018-09-12T09:56:33.218Z,17.10
2018-09-12T09:59:02.286Z,17.10
2018-09-12T10:01:36.590Z,17.20
2018-09-12T10:04:11.679Z,17.20
2018-09-12T10:06:45.861Z,17.30
2018-09-12T10:09:20.018Z,17.50
2018-09-12T10:11:48.993Z,17.70
2018-09-12T10:14:17.686Z,17.90
2018-09-12T10:16:46.144Z,18.30
2018-09-12T10:19:20.628Z,18.60
2018-09-12T10:21:51.896Z,19.40
2018-09-12T10:24:20.592Z,19.60
2018-09-12T10:26:49.439Z,19.20
2018-09-12T10:29:19.349Z,18.40
2018-09-12T10:31:48.817Z,17.90
2018-09-12T10:34:17.542Z,17.50
2018-09-12T10:36:47.471Z,17.20
2018-09-12T10:39:16.904Z,17.30
2018-09-12T10:41:45.453Z,17.00
2018-09-12T10:44:14.310Z,16.80
2018-09-12T10:46:42.938Z,16.70
2018-09-12T10:49:12.396Z,16.70
2018-09-12T10:51:40.886Z,16.60
2018-09-12T10:54:13.067Z,16.60
2018-09-12T10:56:41.966Z,16.60
2018-09-12T10:59:10.524Z,16.60
2018-09-12T11:01:38.914Z,16.60
2018-09-12T11:04:07.221Z,16.30
2018-09-12T11:06:35.519Z,16.20
2018-09-12T11:09:06.290Z,16.10
2018-09-12T11:11:34.826Z,16.00
2018-09-12T11:14:03.102Z,16.00
2018-09-12T11:16:31.425Z,16.00
2018-09-12T11:18:59.747Z,16.00
2018-09-12T11:21:28.200Z,16.00
2018-09-12T11:23:57.232Z,16.10
2018-09-12T11:26:25.595Z,16.20
2018-09-12T11:28:54.272Z,16.20
2018-09-12T11:31:22.721Z,16.40
2018-09-12T11:33:50.978Z,16.40
2018-09-12T11:36:19.276Z,16.50
2018-09-12T11:38:47.552Z,16.60
2018-09-12T11:41:15.786Z,16.60
2018-09-12T11:43:44.116Z,16.50
2018-09-12T11:46:12.442Z,16.40
2018-09-12T11:48:40.780Z,16.20
2018-09-12T11:51:09.222Z,16.10
2018-09-12T11:53:38.662Z,16.00
2018-09-12T11:56:07.964Z,16.00
2018-09-12T11:58:37.263Z,15.90
2018-09-12T12:01:05.967Z,15.90
2018-09-12T12:03:34.467Z,16.00
2018-09-12T12:06:03.018Z,16.00
2018-09-12T12:08:31.423Z,16.20
2018-09-12T12:10:59.835Z,16.40
2018-09-12T12:13:28.321Z,16.30
2018-09-12T12:15:56.740Z,16.40
2018-09-12T12:18:24.943Z,16.40
2018-09-12T12:20:53.284Z,16.40
2018-09-12T12:23:21.799Z,16.40
2018-09-12T12:25:49.994Z,16.60
2018-09-12T12:28:18.209Z,16.50
2018-09-12T12:30:46.538Z,16.60
2018-09-12T12:33:14.940Z,16.60
2018-09-12T12:35:43.110Z,16.70
2018-09-12T12:38:12.883Z,16.60
2018-09-12T12:40:41.233Z,16.50
2018-09-12T12:43:09.604Z,16.60
2018-09-12T12:45:37.930Z,16.70
2018-09-12T12:48:06.319Z,16.80
2018-09-12T12:50:34.775Z,16.80
2018-09-12T12:53:03.147Z,16.70
2018-09-12T12:55:31.505Z,16.50
2018-09-12T12:58:00.912Z,16.40
2018-09-12T13:00:29.259Z,16.30
2018-09-12T13:02:57.651Z,16.50
2018-09-12T13:05:26.026Z,16.50
2018-09-12T13:07:54.397Z,16.40
2018-09-12T13:10:22.796Z,16.50
2018-09-12T13:12:51.109Z,16.40
2018-09-12T13:15:19.536Z,16.40
2018-09-12T13:17:48.071Z,16.40
2018-09-12T13:20:17.485Z,16.50
2018-09-12T13:22:45.794Z,16.50
2018-09-12T13:25:14.169Z,16.50
2018-09-12T13:27:42.631Z,16.50
2018-09-12T13:30:10.913Z,16.60
2018-09-12T13:32:39.375Z,16.50
2018-09-12T13:35:07.876Z,16.50
2018-09-12T13:37:36.268Z,16.50
2018-09-12T13:40:04.769Z,16.40
2018-09-12T13:42:33.174Z,16.30
2018-09-12T13:45:01.499Z,16.00
2018-09-12T13:47:29.882Z,15.80
2018-09-12T13:49:58.275Z,16.00
2018-09-12T13:52:26.642Z,16.20
2018-09-12T13:54:55.019Z,16.40
2018-09-12T13:57:23.380Z,16.40
2018-09-12T13:59:51.757Z,16.40
2018-09-12T14:02:20.165Z,16.40
2018-09-12T14:04:48.508Z,16.40
2018-09-12T14:07:16.837Z,16.40
2018-09-12T14:09:45.178Z,16.60
2018-09-12T14:12:13.579Z,16.70
2018-09-12T14:14:42.022Z,16.80
2018-09-12T14:17:10.421Z,16.90
2018-09-12T14:19:38.692Z,17.10
2018-09-12T14:22:09.694Z,16.90
2018-09-12T14:24:38.060Z,16.50
2018-09-12T14:27:06.316Z,16.00
2018-09-12T14:29:34.990Z,15.40
2018-09-12T14:32:03.508Z,15.10
2018-09-12T14:34:31.982Z,14.80
2018-09-12T14:37:00.473Z,14.80
2018-09-12T14:39:29.030Z,14.70
2018-09-12T14:41:57.540Z,14.70
2018-09-12T14:44:26.678Z,14.70
2018-09-12T14:46:55.054Z,14.70
2018-09-12T14:49:23.999Z,14.70
2018-09-12T14:51:52.786Z,14.70
2018-09-12T14:54:21.345Z,14.80
2018-09-12T14:56:50.095Z,14.90
2018-09-12T14:59:18.823Z,15.00
2018-09-12T15:01:48.518Z,15.10
2018-09-12T15:04:17.122Z,15.20
2018-09-12T15:06:45.587Z,15.20
2018-09-12T15:09:14.599Z,15.20
2018-09-12T15:11:43.259Z,15.20
2018-09-12T15:14:12.235Z,15.30
2018-09-12T15:16:40.911Z,15.40
2018-09-12T15:19:09.516Z,15.50
2018-09-12T15:21:38.017Z,15.60
2018-09-12T15:24:06.891Z,15.60
2018-09-12T15:29:03.898Z,15.70
2018-09-12T15:31:32.720Z,15.80
2018-09-12T15:34:01.336Z,15.80
2018-09-12T15:36:29.895Z,15.80
2018-09-12T15:38:58.679Z,15.70
2018-09-12T15:41:27.387Z,15.40
2018-09-12T15:43:55.908Z,15.30
2018-09-12T15:46:24.339Z,15.10
2018-09-12T15:48:52.670Z,15.00
2018-09-12T15:51:21.007Z,14.90
2018-09-12T15:53:49.287Z,15.00
2018-09-12T15:56:18.676Z,15.00
2018-09-12T15:58:46.974Z,15.00
2018-09-12T16:01:15.307Z,15.10
2018-09-12T16:03:43.649Z,15.20
2018-09-12T16:06:11.999Z,15.20
2018-09-12T16:08:40.302Z,15.30
2018-09-12T16:11:08.595Z,15.40
2018-09-12T16:13:36.919Z,15.50
2018-09-12T16:16:06.030Z,15.50
2018-09-12T16:18:34.376Z,15.60
2018-09-12T16:21:02.690Z,15.70
2018-09-12T16:23:31.025Z,15.80
2018-09-12T16:25:59.365Z,15.90
2018-09-12T16:28:27.798Z,15.90
2018-09-12T16:33:24.278Z,15.90
2018-09-12T16:35:52.627Z,16.00
2018-09-12T16:38:20.936Z,16.10
2018-09-12T16:40:49.262Z,16.00
2018-09-12T16:43:17.561Z,16.00
2018-09-12T16:45:45.937Z,16.00
2018-09-12T16:48:14.319Z,16.00
2018-09-12T16:50:42.657Z,16.00
2018-09-12T16:53:11.060Z,16.00
2018-09-12T16:55:39.433Z,15.90
2018-09-12T16:58:07.825Z,15.90
2018-09-12T17:00:36.173Z,16.00
2018-09-12T17:03:04.578Z,15.90
2018-09-12T17:05:33.946Z,16.00
2018-09-12T17:08:02.318Z,16.00
2018-09-12T17:10:30.687Z,16.00
2018-09-12T17:12:58.983Z,16.00
2018-09-12T17:15:27.372Z,16.00
2018-09-12T17:17:55.758Z,16.00
2018-09-12T17:20:24.121Z,16.00
2018-09-12T17:22:52.463Z,16.00
2018-09-12T17:25:20.980Z,16.00
2018-09-12T17:27:49.426Z,15.90
2018-09-12T17:30:17.785Z,15.90
2018-09-12T17:32:46.139Z,16.00
2018-09-12T17:35:14.458Z,15.90
2018-09-12T17:37:42.760Z,15.90
2018-09-12T17:40:11.146Z,15.90
2018-09-12T17:42:39.560Z,15.90
2018-09-12T17:45:08.353Z,15.90
2018-09-12T17:47:36.933Z,15.90
2018-09-12T17:50:05.584Z,15.80
2018-09-12T17:52:34.275Z,15.80
2018-09-12T17:55:02.700Z,15.90
2018-09-12T17:57:31.054Z,15.90
2018-09-12T17:59:59.552Z,15.80
2018-09-12T18:02:27.930Z,15.80
2018-09-12T18:04:56.301Z,15.80
2018-09-12T18:07:24.613Z,15.80
2018-09-12T18:09:53.031Z,15.70
2018-09-12T18:12:21.516Z,15.70
2018-09-12T18:14:50.006Z,15.70
2018-09-12T18:17:18.381Z,15.70
2018-09-12T18:19:46.702Z,15.70
2018-09-12T18:22:15.028Z,15.70
2018-09-12T18:24:43.510Z,15.70
2018-09-12T18:27:11.880Z,15.70
2018-09-12T18:29:40.375Z,15.70
2018-09-12T18:32:08.737Z,15.70
2018-09-12T18:34:37.177Z,15.60
2018-09-12T18:37:05.677Z,15.60
2018-09-12T18:39:34.125Z,15.60
2018-09-12T18:42:02.480Z,15.70
2018-09-12T18:44:30.797Z,15.70
2018-09-12T18:46:59.196Z,15.70
2018-09-12T18:49:27.565Z,15.60
2018-09-12T18:51:55.951Z,15.60
2018-09-12T18:54:24.369Z,15.50
2018-09-12T18:56:53.541Z,15.50
2018-09-12T18:59:21.864Z,15.40
2018-09-12T19:01:51.242Z,15.30
2018-09-12T19:04:19.608Z,15.20
2018-09-12T19:06:48.191Z,15.20
2018-09-12T19:09:16.463Z,15.10
2018-09-12T19:11:44.822Z,15.00
2018-09-12T19:14:13.129Z,14.90
2018-09-12T19:16:41.477Z,14.90
2018-09-12T19:19:09.825Z,14.90
2018-09-12T19:21:39.137Z,14.90
2018-09-12T19:24:07.869Z,14.80
2018-09-12T19:26:36.250Z,14.70
2018-09-12T19:29:04.611Z,14.60
2018-09-12T19:31:33.004Z,14.60
2018-09-12T19:34:01.390Z,14.60
2018-09-12T19:36:29.752Z,14.60
2018-09-12T19:38:58.068Z,14.50
2018-09-12T19:41:26.546Z,14.60
2018-09-12T19:43:54.908Z,14.60
2018-09-12T19:46:23.335Z,14.50
2018-09-12T19:48:51.655Z,14.40
2018-09-12T19:51:20.126Z,14.40
2018-09-12T19:53:48.546Z,14.40
2018-09-12T19:56:16.999Z,14.40
2018-09-12T19:58:45.538Z,14.30
2018-09-12T20:01:13.917Z,14.40
2018-09-12T20:03:42.234Z,14.30
2018-09-12T20:06:10.676Z,14.30
2018-09-12T20:08:39.364Z,14.30
2018-09-12T20:11:08.059Z,14.30
2018-09-12T20:13:36.405Z,14.30
2018-09-12T20:16:04.741Z,14.20
2018-09-12T20:18:33.051Z,14.20
2018-09-12T20:21:01.513Z,14.20
2018-09-12T20:23:30.040Z,14.20
2018-09-12T20:25:58.287Z,14.20
2018-09-12T20:28:26.576Z,14.20
2018-09-12T20:30:54.933Z,14.20
2018-09-12T20:33:23.228Z,14.20
2018-09-12T20:35:51.637Z,14.20
2018-09-12T20:38:19.901Z,14.20
2018-09-12T20:40:48.249Z,14.10
2018-09-12T20:43:16.526Z,14.10
2018-09-12T20:45:44.731Z,14.10
2018-09-12T20:48:12.908Z,14.00
2018-09-12T20:50:41.373Z,14.00
2018-09-12T20:53:09.625Z,14.00
2018-09-12T20:55:37.884Z,13.90
2018-09-12T20:58:06.179Z,13.90
2018-09-12T21:00:34.471Z,13.90
2018-09-12T21:03:02.724Z,13.90
2018-09-12T21:05:30.963Z,13.90
2018-09-12T21:07:59.216Z,13.90
2018-09-12T21:10:29.444Z,13.90
2018-09-12T21:12:57.847Z,13.90
2018-09-12T21:15:26.074Z,13.90
2018-09-12T21:17:54.930Z,13.90
2018-09-12T21:20:24.874Z,13.90
2018-09-12T21:22:54.248Z,13.90
2018-09-12T21:25:24.565Z,13.90
2018-09-12T21:27:55.382Z,13.90
2018-09-12T21:30:26.324Z,13.80
2018-09-12T21:32:56.374Z,13.80
2018-09-12T21:35:26.393Z,13.80
2018-09-12T21:37:57.045Z,13.80
2018-09-12T21:40:28.545Z,13.80
2018-09-12T21:42:59.508Z,13.90
2018-09-12T21:45:31.372Z,13.80
2018-09-12T21:48:03.240Z,13.90
2018-09-12T21:50:35.411Z,13.80
2018-09-12T21:53:06.350Z,13.80
2018-09-12T21:55:37.384Z,13.80
2018-09-12T21:58:09.170Z,13.80
2018-09-12T22:00:41.789Z,13.80
2018-09-12T22:03:12.083Z,13.80
2018-09-12T22:05:43.328Z,13.80
2018-09-12T22:08:12.996Z,13.90
2018-09-12T22:10:43.405Z,13.90
2018-09-12T22:13:13.567Z,13.90
2018-09-12T22:15:43.797Z,13.80
2018-09-12T22:18:14.436Z,13.80
2018-09-12T22:20:44.054Z,13.70
2018-09-12T22:23:13.607Z,13.70
2018-09-12T22:25:42.521Z,13.70
2018-09-12T22:28:11.556Z,13.70
2018-09-12T22:30:40.546Z,13.70
2018-09-12T22:33:09.604Z,13.70
2018-09-12T22:35:38.707Z,13.70
2018-09-12T22:38:07.891Z,13.70
2018-09-12T22:40:37.045Z,13.70
2018-09-12T22:43:06.000Z,13.70
2018-09-12T22:45:35.145Z,13.70
2018-09-12T22:48:04.444Z,13.70
2018-09-12T22:50:33.787Z,13.70
2018-09-12T22:53:04.109Z,13.70
2018-09-12T22:55:34.579Z,13.70
2018-09-12T22:58:04.088Z,13.70
2018-09-12T23:00:33.712Z,13.70
2018-09-12T23:03:02.949Z,13.70
2018-09-12T23:05:32.621Z,13.80
2018-09-12T23:08:02.774Z,13.80
2018-09-12T23:10:34.160Z,13.80
2018-09-12T23:13:05.709Z,13.80
2018-09-12T23:15:37.318Z,13.80
2018-09-12T23:18:08.136Z,13.80
2018-09-12T23:20:39.227Z,13.80
2018-09-12T23:23:09.208Z,13.80
2018-09-12T23:25:38.887Z,13.80
2018-09-12T23:28:09.043Z,13.70
2018-09-12T23:30:38.569Z,13.70
2018-09-12T23:33:08.220Z,13.80
2018-09-12T23:35:38.496Z,13.80
2018-09-12T23:38:08.223Z,13.70
2018-09-12T23:40:38.667Z,13.80
2018-09-12T23:43:08.998Z,13.80
2018-09-12T23:45:38.853Z,13.80
2018-09-12T23:48:09.522Z,13.70
2018-09-12T23:50:40.237Z,13.70
2018-09-12T23:53:12.020Z,13.80
2018-09-12T23:55:42.732Z,13.80
2018-09-12T23:58:13.563Z,13.90
